Time;durP1;ratioP1;P1;durP2;ratioP2;P2;SDS_P1;SDS_P2;PMS_P1;PMS_P2;Temp;Humidity;BMP_temperature;BMP_pressure;BME280_temperature;BME280_humidity;BME280_pressure;Samples;Min_cycle;Max_cycle;Signal;HPM_P1;HPM_P2
2022/01/31 00:00:37;;;;;;;9.37;4.63;;;;;;;;;;5055525;28;20797;-78
2022/01/31 00:03:03;;;;;;;12.30;4.90;;;0.30;99.90;;;;;;5056485;28;20411;-78
2022/01/31 00:05:29;;;;;;;9.97;4.57;;;0.60;99.90;;;;;;5055493;28;20882;-78
2022/01/31 00:07:55;;;;;;;9.77;3.77;;;0.60;99.90;;;;;;5054710;28;20471;-78
2022/01/31 00:10:28;;;;;;;12.53;4.03;;;;;;;;;;5053946;28;20627;-78
2022/01/31 00:13:03;;;;;;;11.67;4.50;;;0.50;99.90;;;;;;5055852;28;20162;-78
2022/01/31 00:15:30;;;;;;;9.27;4.33;;;0.50;99.90;;;;;;5054123;28;20420;-78
2022/01/31 00:17:56;;;;;;;8.17;3.87;;;0.60;99.90;;;;;;5053823;28;20439;-78
2022/01/31 00:20:22;;;;;;;9.97;3.90;;;;;;;;;;5055561;28;20412;-78
2022/01/31 00:22:48;;;;;;;10.70;4.20;;;0.60;99.90;;;;;;5055733;28;20620;-78
2022/01/31 00:25:14;;;;;;;6.57;3.53;;;0.80;99.90;;;;;;5054774;28;20459;-78
2022/01/31 00:27:40;;;;;;;8.67;3.77;;;0.70;99.90;;;;;;5054758;28;20432;-78
2022/01/31 00:30:06;;;;;;;7.97;4.13;;;;;;;;;;5057331;28;20936;-78
2022/01/31 00:32:32;;;;;;;7.63;3.77;;;;;;;;;;5055596;28;20176;-78
2022/01/31 00:34:58;;;;;;;8.10;3.27;;;;;;;;;;5054794;28;20494;-78
2022/01/31 00:37:25;;;;;;;10.63;3.70;;;0.70;99.90;;;;;;5054165;28;20526;-78
2022/01/31 00:39:51;;;;;;;5.47;3.10;;;0.70;99.90;;;;;;5084152;28;20435;-78
2022/01/31 00:42:17;;;;;;;5.93;3.50;;;0.80;99.90;;;;;;5056282;28;20423;-78
2022/01/31 00:44:50;;;;;;;7.83;3.13;;;;;;;;;;5087350;28;20210;-78
2022/01/31 00:47:19;;;;;;;7.53;4.20;;;0.70;99.90;;;;;;5055598;28;20200;-78
2022/01/31 00:49:53;;;;;;;9.73;3.27;;;0.70;99.90;;;;;;5053830;28;20416;-78
2022/01/31 00:52:19;;;;;;;8.50;3.97;;;0.70;99.90;;;;;;5055332;28;20410;-78
2022/01/31 00:54:46;;;;;;;8.07;3.80;;;0.60;99.90;;;;;;5055661;28;20446;-78
2022/01/31 00:57:12;;;;;;;8.27;3.83;;;0.60;99.90;;;;;;5055249;28;20220;-78
2022/01/31 00:59:38;;;;;;;9.03;4.47;;;;;;;;;;5086996;28;20439;-78
2022/01/31 01:02:04;;;;;;;9.43;3.80;;;0.50;99.90;;;;;;5055150;28;20183;-78
2022/01/31 01:04:29;;;;;;;8.80;3.80;;;0.60;99.90;;;;;;5073564;28;20454;-78
2022/01/31 01:06:56;;;;;;;8.47;3.70;;;;;;;;;;5074577;28;20280;-77
2022/01/31 01:09:22;;;;;;;8.87;3.77;;;;;;;;;;5074295;28;20173;-78
2022/01/31 01:11:48;;;;;;;8.83;3.77;;;0.50;99.90;;;;;;5075588;28;20453;-78
2022/01/31 01:14:14;;;;;;;9.10;3.73;;;0.70;99.90;;;;;;5061171;28;20435;-78
2022/01/31 01:16:40;;;;;;;8.33;3.63;;;;;;;;;;5058575;28;20322;-78
2022/01/31 01:19:06;;;;;;;9.43;4.23;;;;;;;;;;5058720;28;20208;-78
2022/01/31 01:21:32;;;;;;;9.07;3.83;;;0.30;99.90;;;;;;5057531;28;20428;-78
2022/01/31 01:23:57;;;;;;;8.07;3.87;;;0.20;99.90;;;;;;5059060;28;20615;-78
2022/01/31 01:26:23;;;;;;;10.80;4.07;;;;;;;;;;5059072;28;20616;-78
2022/01/31 01:28:50;;;;;;;7.43;4.40;;;;;;;;;;5058544;28;20203;-78
2022/01/31 01:31:16;;;;;;;6.07;3.30;;;;;;;;;;5070827;28;20430;-78
2022/01/31 01:33:42;;;;;;;9.90;4.20;;;;;;;;;;5059908;28;20415;-78
2022/01/31 01:36:09;;;;;;;7.87;4.10;;;;;;;;;;5058107;28;20412;-78
2022/01/31 01:38:35;;;;;;;8.83;4.30;;;;;;;;;;5066900;28;20438;-78
2022/01/31 01:41:01;;;;;;;9.27;4.80;;;0.20;99.90;;;;;;5078366;28;20407;-78
2022/01/31 01:43:30;;;;;;;12.83;3.80;;;0.10;99.90;;;;;;5077122;28;20936;-78
2022/01/31 01:45:57;;;;;;;8.43;4.50;;;0.30;99.90;;;;;;5066674;28;20987;-78
2022/01/31 01:48:23;;;;;;;8.17;4.73;;;0.40;99.90;;;;;;5058883;28;20523;-78
2022/01/31 01:50:50;;;;;;;8.80;4.77;;;0.20;99.90;;;;;;5058373;28;20412;-78
2022/01/31 01:53:16;;;;;;;11.70;4.37;;;;;;;;;;5073884;28;20517;-78
2022/01/31 01:55:45;;;;;;;7.73;4.47;;;0.30;99.90;;;;;;5059718;28;20419;-78
2022/01/31 01:58:15;;;;;;;7.37;4.70;;;0.20;99.90;;;;;;5058825;28;20427;-78
2022/01/31 02:00:58;;;;;;;11.00;4.87;;;0.30;99.90;;;;;;5056893;28;20542;-78
2022/01/31 02:03:26;;;;;;;13.20;5.60;;;0.40;99.90;;;;;;5073781;28;20412;-78
2022/01/31 02:05:52;;;;;;;11.47;5.97;;;0.10;99.90;;;;;;5058244;28;20467;-78
2022/01/31 02:08:19;;;;;;;16.10;6.50;;;;;;;;;;5058059;28;20419;-78
2022/01/31 02:10:45;;;;;;;6.77;4.97;;;;;;;;;;5058378;28;20852;-78
2022/01/31 02:13:12;;;;;;;10.30;4.60;;;;;;;;;;5056625;28;20512;-78
2022/01/31 02:15:40;;;;;;;9.27;5.10;;;0.00;99.90;;;;;;5056104;28;20416;-78
2022/01/31 02:18:08;;;;;;;10.60;4.87;;;0.10;99.90;;;;;;5057167;28;20443;-78
2022/01/31 02:20:42;;;;;;;8.80;4.67;;;0.00;99.90;;;;;;5057703;28;20761;-78
2022/01/31 02:23:10;;;;;;;10.73;5.20;;;0.10;99.90;;;;;;5056425;28;20411;-78
2022/01/31 02:25:56;;;;;;;10.33;4.80;;;0.10;99.90;;;;;;5059389;28;20466;-78
2022/01/31 02:28:26;;;;;;;11.17;4.37;;;0.00;99.90;;;;;;5076313;28;21062;-78
2022/01/31 02:30:52;;;;;;;4.83;4.10;;;;;;;;;;5077201;28;20416;-78
2022/01/31 02:33:19;;;;;;;11.00;4.57;;;;;;;;;;5078031;28;20900;-78
2022/01/31 02:35:47;;;;;;;10.87;4.50;;;0.30;99.90;;;;;;5077793;28;20487;-78
2022/01/31 02:38:12;;;;;;;12.00;4.97;;;0.20;99.90;;;;;;5078043;28;20519;-78
2022/01/31 02:40:38;;;;;;;11.87;4.60;;;;;;;;;;5065383;28;20455;-78
2022/01/31 02:43:05;;;;;;;9.17;4.50;;;;;;;;;;5057790;28;20661;-78
2022/01/31 02:45:31;;;;;;;9.63;4.90;;;0.30;99.90;;;;;;5056896;28;20455;-78
2022/01/31 02:47:59;;;;;;;11.63;4.70;;;0.40;99.90;;;;;;5057553;28;20428;-78
2022/01/31 02:50:25;;;;;;;9.57;5.03;;;0.40;99.90;;;;;;5057623;28;20416;-78
2022/01/31 02:53:09;;;;;;;8.90;4.83;;;;;;;;;;5057276;28;20404;-78
2022/01/31 02:55:34;;;;;;;10.70;4.77;;;0.40;99.90;;;;;;5055484;28;20789;-78
2022/01/31 02:58:00;;;;;;;12.40;4.87;;;0.50;99.90;;;;;;5076686;28;20443;-78
2022/01/31 03:00:26;;;;;;;10.07;4.47;;;0.30;99.90;;;;;;5077089;28;20279;-78
2022/01/31 03:02:52;;;;;;;8.40;4.33;;;;;;;;;;5076949;28;20173;-78
2022/01/31 03:05:18;;;;;;;8.50;3.83;;;;;;;;;;5077138;28;20458;-78
2022/01/31 03:07:44;;;;;;;7.83;3.60;;;;;;;;;;5065287;28;20201;-78
2022/01/31 03:10:10;;;;;;;9.70;4.43;;;0.00;99.90;;;;;;5056807;28;20488;-78
2022/01/31 03:12:36;;;;;;;9.17;4.00;;;;;;;;;;5066474;28;20188;-78
2022/01/31 03:15:02;;;;;;;6.47;4.07;;;0.40;99.90;;;;;;5074910;28;20303;-78
2022/01/31 03:17:28;;;;;;;12.50;4.33;;;;;;;;;;5076914;28;20441;-78
2022/01/31 03:19:54;;;;;;;7.00;4.17;;;;;;;;;;5076600;28;20443;-78
2022/01/31 03:22:22;;;;;;;10.13;3.57;;;;;;;;;;5075000;28;20415;-78
2022/01/31 03:24:48;;;;;;;12.10;4.67;;;;;;;;;;5076253;28;20944;-78
2022/01/31 03:27:15;;;;;;;6.07;4.17;;;0.80;99.90;;;;;;5075186;28;20561;-78
2022/01/31 03:29:41;;;;;;;10.90;5.50;;;1.00;99.90;;;;;;5075686;28;20177;-78
2022/01/31 03:32:07;;;;;;;14.07;4.30;;;1.00;99.90;;;;;;5076126;28;20430;-78
2022/01/31 03:34:33;;;;;;;9.60;4.50;;;;;;;;;;5070239;28;20181;-78
2022/01/31 03:36:58;;;;;;;9.00;4.97;;;1.10;99.90;;;;;;5056315;28;20667;-78
2022/01/31 03:39:24;;;;;;;6.73;3.87;;;1.00;99.90;;;;;;5054933;28;20235;-78
2022/01/31 03:41:50;;;;;;;11.07;4.60;;;1.10;99.90;;;;;;5054774;28;20185;-78
2022/01/31 03:44:16;;;;;;;10.33;5.37;;;1.10;99.90;;;;;;5056054;28;20279;-78
2022/01/31 03:46:42;;;;;;;8.03;4.77;;;1.20;99.90;;;;;;5064641;28;20246;-78
2022/01/31 03:49:07;;;;;;;8.60;4.63;;;1.20;99.90;;;;;;5056124;28;20178;-78
2022/01/31 03:51:33;;;;;;;11.27;4.90;;;1.30;99.90;;;;;;5070987;28;20181;-78
2022/01/31 03:53:59;;;;;;;11.97;5.70;;;;;;;;;;5076329;28;20257;-78
2022/01/31 03:56:25;;;;;;;10.03;5.43;;;;;;;;;;5076317;28;20184;-78
2022/01/31 03:58:51;;;;;;;11.30;5.87;;;1.30;99.90;;;;;;5075850;28;20193;-78
2022/01/31 04:01:16;;;;;;;8.53;5.10;;;1.40;99.90;;;;;;5076220;28;20407;-78
2022/01/31 04:03:42;;;;;;;13.60;5.50;;;;;;;;;;5055581;28;20220;-78
2022/01/31 04:06:08;;;;;;;7.37;4.97;;;1.40;99.90;;;;;;5056676;28;20593;-78
2022/01/31 04:08:34;;;;;;;5.70;3.77;;;1.50;99.90;;;;;;5055735;28;20438;-78
2022/01/31 04:10:59;;;;;;;14.77;4.63;;;1.80;99.90;;;;;;5055139;28;20178;-78
2022/01/31 04:13:26;;;;;;;6.77;5.03;;;1.40;99.90;;;;;;5055144;28;20250;-78
2022/01/31 04:15:52;;;;;;;8.40;4.50;;;1.40;99.90;;;;;;5055002;28;20188;-78
2022/01/31 04:18:19;;;;;;;10.80;5.50;;;1.40;99.90;;;;;;5056026;28;20440;-78
2022/01/31 04:20:45;;;;;;;3.93;3.40;;;1.80;99.90;;;;;;5056355;28;20465;-78
2022/01/31 04:23:13;;;;;;;10.30;5.63;;;1.40;99.90;;;;;;5056532;28;20443;-78
2022/01/31 04:28:22;;;;;;;7.37;4.10;;;1.30;99.90;;;;;;5055675;28;20442;-78
2022/01/31 04:30:55;;;;;;;10.93;5.33;;;1.40;99.90;;;;;;5056255;28;20497;-78
2022/01/31 04:33:22;;;;;;;9.00;4.00;;;2.60;99.90;;;;;;5056856;28;20407;-78
2022/01/31 04:35:48;;;;;;;4.37;2.90;;;1.40;99.90;;;;;;5055907;28;20427;-78
2022/01/31 04:38:14;;;;;;;3.57;1.87;;;1.40;99.90;;;;;;5055856;28;20431;-78
2022/01/31 04:40:39;;;;;;;7.03;4.53;;;1.40;99.90;;;;;;5055366;28;20607;-78
2022/01/31 04:43:05;;;;;;;7.57;4.63;;;1.40;99.90;;;;;;5055386;28;20201;-78
2022/01/31 04:45:31;;;;;;;5.50;3.13;;;1.40;99.90;;;;;;5054234;28;20225;-78
2022/01/31 04:47:57;;;;;;;9.40;4.73;;;1.30;99.90;;;;;;5054921;28;20197;-78
2022/01/31 04:50:22;;;;;;;4.90;3.47;;;1.30;99.90;;;;;;5053347;28;20186;-78
2022/01/31 04:52:48;;;;;;;8.10;4.60;;;1.20;99.90;;;;;;5055076;28;20184;-78
2022/01/31 04:55:14;;;;;;;7.60;4.10;;;1.30;99.90;;;;;;5069316;28;20177;-78
2022/01/31 04:57:40;;;;;;;9.50;4.67;;;1.20;99.90;;;;;;5059280;28;20205;-78
2022/01/31 05:00:08;;;;;;;6.13;2.30;;;1.20;99.90;;;;;;5058351;28;20261;-78
2022/01/31 05:02:35;;;;;;;7.90;3.03;;;1.10;99.90;;;;;;5056697;28;20798;-78
2022/01/31 05:05:01;;;;;;;9.50;4.10;;;1.10;99.90;;;;;;5054204;28;20501;-78
2022/01/31 05:07:26;;;;;;;6.23;3.50;;;1.00;99.90;;;;;;5054499;28;20431;-78
2022/01/31 05:09:52;;;;;;;5.77;3.10;;;1.10;99.90;;;;;;5054012;28;20222;-78
2022/01/31 05:12:18;;;;;;;7.80;4.30;;;1.10;99.90;;;;;;5054075;28;20178;-78
2022/01/31 05:14:44;;;;;;;5.03;2.67;;;;;;;;;;5053889;28;20181;-78
2022/01/31 05:17:09;;;;;;;12.23;5.57;;;0.80;99.90;;;;;;5053757;28;20197;-78
2022/01/31 05:19:35;;;;;;;8.47;4.13;;;;;;;;;;5053940;28;20514;-78
2022/01/31 05:22:01;;;;;;;8.57;4.10;;;;;;;;;;5053924;28;20181;-78
2022/01/31 05:24:28;;;;;;;4.80;2.83;;;1.20;99.90;;;;;;5052158;28;20879;-78
2022/01/31 05:26:54;;;;;;;11.07;3.63;;;1.20;99.90;;;;;;5052142;28;20459;-78
2022/01/31 05:29:21;;;;;;;10.97;4.80;;;1.30;99.90;;;;;;5052410;28;20416;-78
2022/01/31 05:31:48;;;;;;;13.97;4.73;;;1.40;99.90;;;;;;5053389;28;20419;-78
2022/01/31 05:34:15;;;;;;;9.27;3.57;;;1.40;99.90;;;;;;5052246;28;20416;-77
2022/01/31 05:36:41;;;;;;;10.27;3.87;;;1.50;99.90;;;;;;5070355;28;20838;-78
2022/01/31 05:39:07;;;;;;;13.27;4.47;;;1.40;99.90;;;;;;5090005;28;20414;-78
2022/01/31 05:41:33;;;;;;;7.60;2.80;;;1.40;99.90;;;;;;5080518;28;20462;-78
2022/01/31 05:43:59;;;;;;;5.73;3.40;;;;;;;;;;5054875;28;20247;-78
2022/01/31 05:46:24;;;;;;;4.07;2.00;;;1.40;99.90;;;;;;5053169;28;20193;-78
2022/01/31 05:48:51;;;;;;;5.40;2.90;;;;;;;;;;5053668;28;20243;-78
2022/01/31 05:51:22;;;;;;;9.57;2.90;;;1.50;99.90;;;;;;5053631;28;20178;-78
2022/01/31 05:53:50;;;;;;;3.93;2.17;;;1.50;99.90;;;;;;5053662;28;20400;-78
2022/01/31 05:56:17;;;;;;;7.77;2.37;;;1.50;99.90;;;;;;5053614;28;20408;-78
2022/01/31 05:58:43;;;;;;;5.67;2.37;;;1.50;99.90;;;;;;5055747;28;20423;-78
2022/01/31 06:01:08;;;;;;;7.23;3.10;;;1.50;99.90;;;;;;5057989;28;20437;-78
2022/01/31 06:03:34;;;;;;;8.87;3.37;;;1.40;99.90;;;;;;5057515;28;20881;-78
2022/01/31 06:06:01;;;;;;;2.60;1.57;;;1.50;99.90;;;;;;5057403;28;20211;-78
2022/01/31 06:08:28;;;;;;;2.27;1.97;;;;;;;;;;5058332;28;20222;-78
2022/01/31 06:10:54;;;;;;;10.67;3.03;;;1.50;99.90;;;;;;5056331;28;20422;-77
2022/01/31 06:13:29;;;;;;;4.77;2.80;;;2.50;99.90;;;;;;5059039;28;20415;-77
2022/01/31 06:15:55;;;;;;;10.43;2.83;;;1.50;99.90;;;;;;5080962;28;20522;-78
2022/01/31 06:18:20;;;;;;;4.87;2.03;;;1.50;99.90;;;;;;5075845;28;20446;-78
2022/01/31 06:20:46;;;;;;;12.53;3.63;;;1.50;99.90;;;;;;5075075;28;20209;-78
2022/01/31 06:23:12;;;;;;;3.30;1.90;;;1.50;99.90;;;;;;5077238;28;20212;-78
2022/01/31 06:25:39;;;;;;;2.63;1.83;;;1.60;99.90;;;;;;5076602;28;20308;-78
2022/01/31 06:28:06;;;;;;;4.67;2.73;;;1.60;99.90;;;;;;5077700;28;20434;-78
2022/01/31 06:30:33;;;;;;;7.63;2.93;;;1.90;99.90;;;;;;5078213;28;20418;-78
2022/01/31 06:32:59;;;;;;;6.20;2.70;;;1.60;99.90;;;;;;5059070;28;20427;-79
2022/01/31 06:35:25;;;;;;;9.03;3.27;;;1.60;99.90;;;;;;5054087;28;20427;-79
2022/01/31 06:37:51;;;;;;;8.63;2.83;;;1.60;99.90;;;;;;5057423;28;20197;-79
2022/01/31 06:40:17;;;;;;;5.27;2.83;;;1.60;99.90;;;;;;5058397;28;20187;-78
2022/01/31 06:42:43;;;;;;;6.03;2.20;;;2.70;99.90;;;;;;5067199;28;20514;-79
2022/01/31 06:45:09;;;;;;;6.83;3.10;;;1.70;99.90;;;;;;5081342;28;20201;-78
2022/01/31 06:47:35;;;;;;;5.10;2.63;;;1.70;99.90;;;;;;5083929;28;20242;-78
2022/01/31 06:50:04;;;;;;;4.93;2.50;;;1.70;99.90;;;;;;5078659;28;20497;-78
2022/01/31 06:52:33;;;;;;;7.90;2.80;;;1.70;99.90;;;;;;5076826;28;20264;-79
2022/01/31 06:55:03;;;;;;;4.37;1.90;;;1.80;99.90;;;;;;5078404;28;20181;-78
2022/01/31 06:57:33;;;;;;;4.40;2.20;;;1.80;99.90;;;;;;5078203;28;20443;-79
2022/01/31 07:00:00;;;;;;;7.70;1.87;;;1.70;99.90;;;;;;5077127;28;20449;-78
2022/01/31 07:02:26;;;;;;;3.63;2.77;;;1.80;99.90;;;;;;5076322;28;20434;-78
2022/01/31 07:04:52;;;;;;;6.67;2.93;;;1.90;99.90;;;;;;5077107;28;20454;-78
2022/01/31 07:07:18;;;;;;;8.20;3.20;;;1.90;99.90;;;;;;5078726;28;20438;-78
2022/01/31 07:09:43;;;;;;;2.97;2.30;;;1.90;99.90;;;;;;5078899;28;20242;-78
2022/01/31 07:12:12;;;;;;;4.73;2.80;;;2.00;99.90;;;;;;5057857;28;20693;-78
2022/01/31 07:14:37;;;;;;;5.67;1.93;;;2.00;99.90;;;;;;5072060;28;20181;-78
2022/01/31 07:17:05;;;;;;;1.93;1.43;;;2.00;99.90;;;;;;5056087;28;20820;-79
2022/01/31 07:19:34;;;;;;;1.63;1.37;;;2.10;99.90;;;;;;5063511;28;20175;-78
2022/01/31 07:22:00;;;;;;;5.47;2.97;;;2.10;99.90;;;;;;5075018;28;20439;-78
2022/01/31 07:24:45;;;;;;;9.70;2.23;;;2.00;99.90;;;;;;5074899;28;20472;-78
2022/01/31 07:27:11;;;;;;;6.47;2.73;;;2.10;99.90;;;;;;5074264;28;20197;-78
2022/01/31 10:45:44;;;;;;;1.40;1.30;;;2.20;99.90;;;;;;5042439;28;20403;-77
2022/01/31 10:54:11;;;;;;;2.17;1.67;;;3.30;99.90;;;;;;5092127;28;20391;-78
2022/01/31 10:56:42;;;;;;;1.50;1.40;;;3.90;99.90;;;;;;5074146;28;20497;-78
2022/01/31 10:59:14;;;;;;;1.43;1.33;;;4.10;99.90;;;;;;5107627;28;20413;-79
2022/01/31 11:01:42;;;;;;;1.50;1.40;;;3.70;99.90;;;;;;5115205;28;20283;-78
2022/01/31 11:04:14;;;;;;;1.50;1.40;;;3.30;99.90;;;;;;5094114;28;20712;-78
2022/01/31 11:06:45;;;;;;;1.60;1.50;;;3.20;99.90;;;;;;5095340;28;20309;-78
2022/01/31 11:09:16;;;;;;;1.80;1.67;;;3.00;99.90;;;;;;5096917;28;20201;-77
2022/01/31 11:11:46;;;;;;;2.20;1.40;;;3.00;99.90;;;;;;5119941;28;20187;-79
2022/01/31 11:14:13;;;;;;;2.60;1.80;;;3.30;99.90;;;;;;5103795;28;20207;-80
2022/01/31 11:16:40;;;;;;;2.10;1.90;;;3.10;99.90;;;;;;5126828;28;20259;-80
2022/01/31 11:19:09;;;;;;;1.83;1.30;;;3.10;99.90;;;;;;5129825;28;20198;-80
2022/01/31 11:21:40;;;;;;;1.60;1.50;;;3.00;99.90;;;;;;5129275;28;20195;-79
2022/01/31 11:24:22;;;;;;;2.20;2.00;;;2.90;99.90;;;;;;5109703;28;20184;-80
2022/01/31 11:26:57;;;;;;;2.90;2.00;;;2.80;99.90;;;;;;5108823;28;20178;-79
2022/01/31 11:29:23;;;;;;;1.77;1.67;;;2.70;99.90;;;;;;5119702;28;20170;-79
2022/01/31 11:31:49;;;;;;;2.00;1.90;;;2.70;99.90;;;;;;5094245;28;20218;-78
2022/01/31 11:34:15;;;;;;;2.17;1.97;;;2.50;99.90;;;;;;5092304;28;20688;-78
2022/01/31 11:36:42;;;;;;;1.90;1.80;;;2.60;99.90;;;;;;5111966;28;20180;-80
2022/01/31 11:39:13;;;;;;;4.07;2.50;;;2.60;99.90;;;;;;5110992;28;20176;-77
2022/01/31 11:42:03;;;;;;;3.13;2.23;;;2.70;99.90;;;;;;5112316;28;20207;-79
2022/01/31 11:44:44;;;;;;;3.93;2.60;;;2.90;99.90;;;;;;5114424;28;20168;-79
2022/01/31 11:47:10;;;;;;;3.20;2.47;;;3.40;99.90;;;;;;5110069;28;20199;-77
2022/01/31 11:49:57;;;;;;;2.97;2.30;;;3.40;99.90;;;;;;5091716;28;20313;-78
2022/01/31 11:52:29;;;;;;;2.67;2.47;;;3.70;99.90;;;;;;5105136;28;20168;-77
2022/01/31 11:55:00;;;;;;;2.00;1.83;;;4.00;99.90;;;;;;5098111;28;20165;-78
2022/01/31 11:57:29;;;;;;;2.00;1.80;;;4.00;99.90;;;;;;5081550;28;20202;-80
2022/01/31 12:00:09;;;;;;;2.87;1.93;;;4.00;99.90;;;;;;5099762;28;20199;-81
2022/01/31 12:02:44;;;;;;;3.77;2.30;;;4.00;99.90;;;;;;5101747;28;20175;-80
2022/01/31 12:05:14;;;;;;;2.30;1.73;;;4.10;99.90;;;;;;5083785;28;20181;-81
2022/01/31 12:07:41;;;;;;;6.00;2.13;;;4.00;99.90;;;;;;5101253;28;20563;-81
2022/01/31 12:10:10;;;;;;;2.80;2.20;;;3.90;99.90;;;;;;5102329;28;20172;-80
2022/01/31 12:12:52;;;;;;;4.43;3.07;;;3.60;99.90;;;;;;5086173;28;20173;-80
2022/01/31 12:18:27;;;;;;;5.77;3.20;;;3.20;99.90;;;;;;5099564;28;20235;-81
2022/01/31 12:24:01;;;;;;;4.47;3.30;;;3.10;99.90;;;;;;5103522;28;20240;-81
2022/01/31 12:26:32;;;;;;;6.93;4.27;;;2.90;99.90;;;;;;5104102;28;20172;-83
2022/01/31 12:29:10;;;;;;;3.30;2.37;;;2.90;99.90;;;;;;5086173;28;20164;-82
2022/01/31 12:31:37;;;;;;;10.80;4.20;;;2.70;99.90;;;;;;5086079;28;20176;-82
2022/01/31 12:34:10;;;;;;;11.20;5.83;;;2.80;99.90;;;;;;5103469;28;20191;-81
2022/01/31 12:36:36;;;;;;;6.40;3.97;;;2.80;99.90;;;;;;5103833;28;20169;-82
2022/01/31 12:45:09;;;;;;;5.10;1.73;;;2.90;99.90;;;;;;5104322;28;20196;-81
2022/01/31 12:47:35;;;;;;;1.67;1.57;;;3.10;99.90;;;;;;5083411;28;20184;-80
2022/01/31 12:50:21;;;;;;;3.50;2.60;;;3.00;99.90;;;;;;5083146;28;20263;-80
2022/01/31 12:52:47;;;;;;;3.87;2.87;;;3.00;99.90;;;;;;5085636;28;20184;-81
2022/01/31 12:55:13;;;;;;;2.10;1.97;;;3.00;99.90;;;;;;5083863;28;20225;-80
2022/01/31 12:57:53;;;;;;;2.80;2.03;;;3.00;99.90;;;;;;5101556;28;20438;-80
2022/01/31 13:00:31;;;;;;;3.17;1.93;;;3.00;99.90;;;;;;5094221;28;20202;-80
2022/01/31 13:02:57;;;;;;;1.67;1.57;;;3.00;99.90;;;;;;5113391;28;20168;-80
2022/01/31 13:05:33;;;;;;;2.13;1.90;;;3.00;99.90;;;;;;5084874;28;20429;-81
2022/01/31 13:07:58;;;;;;;3.00;1.90;;;2.90;99.90;;;;;;5081961;28;20203;-81
2022/01/31 13:10:24;;;;;;;2.07;1.83;;;3.00;99.90;;;;;;5101813;28;20172;-80
2022/01/31 13:13:00;;;;;;;2.70;2.13;;;2.90;99.90;;;;;;5100283;28;20185;-79
2022/01/31 13:15:26;;;;;;;2.27;1.90;;;2.90;99.90;;;;;;5097563;28;20176;-79
2022/01/31 13:18:08;;;;;;;2.60;2.00;;;2.90;99.90;;;;;;5078319;28;20783;-78
2022/01/31 13:20:36;;;;;;;2.60;2.20;;;2.90;99.90;;;;;;5096229;28;20196;-78
2022/01/31 13:23:03;;;;;;;2.23;1.70;;;2.90;99.90;;;;;;5096893;28;20609;-78
2022/01/31 13:25:29;;;;;;;3.40;2.00;;;2.90;99.90;;;;;;5079214;28;20422;-78
2022/01/31 13:27:56;;;;;;;3.17;1.87;;;2.90;99.90;;;;;;5079601;28;20221;-78
2022/01/31 13:30:30;;;;;;;2.03;1.50;;;2.80;99.90;;;;;;5096161;28;20185;-78
2022/01/31 13:32:56;;;;;;;4.37;2.10;;;2.80;99.90;;;;;;5077294;28;20429;-80
2022/01/31 13:35:24;;;;;;;5.10;2.50;;;2.80;99.90;;;;;;5099464;28;20593;-79
2022/01/31 13:38:08;;;;;;;3.17;2.67;;;2.90;99.90;;;;;;5098695;28;20192;-79
2022/01/31 13:40:43;;;;;;;5.07;2.60;;;2.80;99.90;;;;;;5092065;28;20200;-81
2022/01/31 13:43:14;;;;;;;3.57;2.53;;;2.80;99.90;;;;;;5098343;28;20153;-79
2022/01/31 13:45:57;;;;;;;2.70;2.23;;;2.80;99.90;;;;;;5080063;28;20413;-79
2022/01/31 13:49:17;;;;;;;2.90;1.60;;;2.70;99.90;;;;;;5099110;28;20322;-79
2022/01/31 13:51:48;;;;;;;3.10;2.20;;;;;;;;;;5098886;28;20191;-79
2022/01/31 13:54:19;;;;;;;3.57;1.63;;;2.70;99.90;;;;;;5097488;28;20621;-79
2022/01/31 13:56:46;;;;;;;6.57;2.10;;;2.70;99.90;;;;;;5097369;28;20238;-79
2022/01/31 13:59:15;;;;;;;7.37;2.70;;;2.60;99.90;;;;;;5097660;28;20602;-79
2022/01/31 14:01:41;;;;;;;2.23;1.77;;;2.70;99.90;;;;;;5081027;28;20210;-79
2022/01/31 14:04:08;;;;;;;3.63;1.93;;;2.70;99.90;;;;;;5079372;28;20176;-79
2022/01/31 14:06:34;;;;;;;3.03;2.20;;;2.70;99.90;;;;;;5098453;28;20406;-79
2022/01/31 14:09:06;;;;;;;5.17;1.70;;;2.70;99.90;;;;;;5098454;28;20406;-79
2022/01/31 14:11:43;;;;;;;3.83;1.67;;;2.60;99.90;;;;;;5079576;28;20176;-79
2022/01/31 14:14:10;;;;;;;3.13;1.47;;;2.60;99.90;;;;;;5097503;28;20220;-79
2022/01/31 14:16:39;;;;;;;5.93;1.57;;;2.60;99.90;;;;;;5078646;28;20201;-79
2022/01/31 14:19:08;;;;;;;4.27;2.30;;;2.60;99.90;;;;;;5099272;28;20634;-79
2022/01/31 14:21:36;;;;;;;1.27;1.20;;;2.50;99.90;;;;;;5098328;28;20213;-77
2022/01/31 14:24:04;;;;;;;2.13;1.13;;;2.40;99.90;;;;;;5075271;28;20250;-76
2022/01/31 14:26:34;;;;;;;1.97;1.60;;;2.40;99.90;;;;;;5093693;28;20172;-77
2022/01/31 14:29:03;;;;;;;3.27;1.93;;;2.30;99.90;;;;;;5075333;28;20483;-77
2022/01/31 14:31:32;;;;;;;2.37;1.47;;;2.30;99.90;;;;;;5075276;28;20184;-77
2022/01/31 14:34:03;;;;;;;4.57;1.77;;;2.20;99.90;;;;;;5075175;28;20687;-77
2022/01/31 14:36:40;;;;;;;4.27;1.90;;;2.20;99.90;;;;;;5093716;28;20160;-77
2022/01/31 14:47:47;;;;;;;1.40;1.30;;;2.10;99.90;;;;;;5097447;28;20211;-79
2022/01/31 14:50:14;;;;;;;3.03;1.97;;;2.00;99.90;;;;;;5079142;28;20410;-79
2022/01/31 14:52:40;;;;;;;2.47;1.57;;;1.90;99.90;;;;;;5097505;28;20402;-79
2022/01/31 14:55:16;;;;;;;6.87;2.70;;;1.90;99.90;;;;;;5097331;28;20413;-79
2022/01/31 14:57:42;;;;;;;1.50;1.40;;;1.70;99.90;;;;;;5097631;28;20649;-79
2022/01/31 15:00:14;;;;;;;2.90;1.47;;;1.70;99.90;;;;;;5079261;28;20405;-79
2022/01/31 15:02:41;;;;;;;5.60;2.00;;;1.70;99.90;;;;;;5078090;28;20823;-77
2022/01/31 15:05:09;;;;;;;2.20;1.57;;;1.90;99.90;;;;;;5093544;28;20164;-76
2022/01/31 15:07:35;;;;;;;2.23;1.90;;;1.70;99.90;;;;;;5096006;28;20434;-79
2022/01/31 15:10:01;;;;;;;5.40;1.67;;;1.80;99.90;;;;;;5081076;28;20433;-80
2022/01/31 15:12:27;;;;;;;2.23;1.43;;;1.70;99.90;;;;;;5096221;28;20164;-76
2022/01/31 15:14:52;;;;;;;2.00;1.23;;;2.60;99.90;;;;;;5094703;28;20176;-79
2022/01/31 15:17:18;;;;;;;1.73;1.47;;;1.70;99.90;;;;;;5078290;28;20270;-79
2022/01/31 15:19:44;;;;;;;1.40;1.07;;;2.20;99.90;;;;;;5096857;28;20187;-79
2022/01/31 15:22:11;;;;;;;2.27;1.30;;;1.80;99.90;;;;;;5078160;28;20196;-79
2022/01/31 15:24:38;;;;;;;2.47;1.70;;;1.60;99.90;;;;;;5077721;28;20226;-79
2022/01/31 15:27:05;;;;;;;1.70;1.23;;;1.70;99.90;;;;;;5097559;28;20278;-79
2022/01/31 15:29:31;;;;;;;1.73;0.80;;;1.70;99.90;;;;;;5081625;28;20180;-79
2022/01/31 15:31:59;;;;;;;1.70;1.13;;;1.70;99.90;;;;;;5101326;28;20673;-80
2022/01/31 15:34:25;;;;;;;1.53;1.30;;;2.10;99.90;;;;;;5100745;28;20168;-80
2022/01/31 15:36:50;;;;;;;3.20;1.33;;;1.80;99.90;;;;;;5081218;28;20448;-79
2022/01/31 15:39:16;;;;;;;1.57;1.10;;;1.80;99.90;;;;;;5101491;28;20176;-79
2022/01/31 15:41:44;;;;;;;2.00;1.30;;;1.90;99.90;;;;;;5082717;28;20251;-79
2022/01/31 15:44:22;;;;;;;1.43;1.03;;;1.80;99.90;;;;;;5102081;28;20194;-79
2022/01/31 15:46:48;;;;;;;2.93;1.90;;;1.80;99.90;;;;;;5102026;28;20769;-78
2022/01/31 15:49:14;;;;;;;3.37;1.70;;;1.80;99.90;;;;;;5101856;28;20485;-78
2022/01/31 15:51:39;;;;;;;2.87;2.17;;;1.80;99.90;;;;;;5101542;28;20172;-79
2022/01/31 15:54:05;;;;;;;2.60;2.33;;;1.80;99.90;;;;;;5101533;28;20250;-79
2022/01/31 15:56:30;;;;;;;5.10;2.37;;;1.80;99.90;;;;;;5082552;28;20179;-79
2022/01/31 15:58:56;;;;;;;1.87;1.63;;;1.80;99.90;;;;;;5083294;28;20637;-79
2022/01/31 16:01:22;;;;;;;3.77;1.93;;;2.10;99.90;;;;;;5102275;28;20200;-79
2022/01/31 16:03:49;;;;;;;6.13;1.70;;;1.70;99.90;;;;;;5102411;28;20203;-79
2022/01/31 16:06:15;;;;;;;3.10;1.90;;;1.70;99.90;;;;;;5101464;28;20186;-79
2022/01/31 16:08:41;;;;;;;3.97;2.90;;;1.60;99.90;;;;;;5100736;28;20939;-78
2022/01/31 16:11:07;;;;;;;5.27;2.50;;;2.40;99.90;;;;;;5101186;28;20172;-79
2022/01/31 16:13:34;;;;;;;5.33;3.10;;;1.60;99.90;;;;;;5099653;28;20190;-80
2022/01/31 16:16:00;;;;;;;2.67;2.10;;;1.50;99.90;;;;;;5080015;28;20235;-79
2022/01/31 16:18:26;;;;;;;2.60;1.67;;;1.40;99.90;;;;;;5080513;28;20445;-79
2022/01/31 16:20:53;;;;;;;5.07;2.43;;;1.40;99.90;;;;;;5079228;28;20462;-79
2022/01/31 16:23:19;;;;;;;4.80;2.07;;;1.30;99.90;;;;;;5084020;28;20194;-80
2022/01/31 16:25:45;;;;;;;4.67;3.53;;;1.10;99.90;;;;;;5098371;28;20931;-79
2022/01/31 16:28:19;;;;;;;2.67;1.70;;;1.10;99.90;;;;;;5099171;28;20433;-80
2022/01/31 16:30:46;;;;;;;2.17;1.77;;;0.80;99.90;;;;;;5081227;28;20207;-79
2022/01/31 16:33:11;;;;;;;5.97;1.87;;;0.80;99.90;;;;;;5100924;28;20432;-79
2022/01/31 16:35:37;;;;;;;12.07;4.13;;;0.70;99.90;;;;;;5101803;28;20422;-80
2022/01/31 16:38:04;;;;;;;8.90;4.97;;;0.60;99.90;;;;;;5105937;28;20199;-79
2022/01/31 16:40:30;;;;;;;7.70;3.70;;;0.50;99.90;;;;;;5105551;28;20196;-79
2022/01/31 16:42:55;;;;;;;2.50;2.30;;;0.50;99.90;;;;;;5100940;28;20744;-80
2022/01/31 16:45:21;;;;;;;3.40;1.70;;;0.50;99.90;;;;;;5082557;28;20230;-80
2022/01/31 16:47:48;;;;;;;7.43;4.40;;;0.50;99.90;;;;;;5098881;28;20212;-79
2022/01/31 16:50:18;;;;;;;9.77;5.40;;;0.50;99.90;;;;;;5080396;28;20186;-79
2022/01/31 16:52:44;;;;;;;11.20;6.40;;;0.50;99.90;;;;;;5099320;28;20968;-81
2022/01/31 16:55:11;;;;;;;5.63;3.07;;;0.50;99.90;;;;;;5100706;28;20402;-80
2022/01/31 16:57:38;;;;;;;7.53;4.17;;;0.50;99.90;;;;;;5101781;28;20313;-80
2022/01/31 17:00:06;;;;;;;4.23;3.53;;;0.50;99.90;;;;;;5083047;28;20429;-80